| time (UTC) | temp C | wind direction | speed KPH | gust KPH | rain 1hr cm | rain 24hr cm | rain mn cm | humidity % | barometer mb |
| 20260509202053 | 10 | 270 | 1.6 | 1.6 | 0.00 | 0.00 | 0.00 | 62 | 1020.8 |
| 20260509201547 | 10 | 180 | 1.6 | 1.6 | 0.00 | 0.00 | 0.00 | 62 | 1020.8 |
| 20260509201046 | 10 | 180 | 1.6 | 3.2 | 0.00 | 0.00 | 0.00 | 62 | 1020.8 |
| 20260509200545 | 10 | 270 | 0.0 | 0.0 | 0.00 | 0.00 | 0.00 | 61 | 1020.5 |
| 20260509200042 | 10 | 270 | 0.0 | 1.6 | 0.00 | 0.00 | 0.00 | 61 | 1020.5 |
| 20260509195537 | 10 | 270 | 3.2 | 4.8 | 0.00 | 0.00 | 0.00 | 61 | 1020.5 |
| 20260509195032 | 10 | 270 | 3.2 | 4.8 | 0.00 | 0.00 | 0.00 | 61 | 1020.5 |
| 20260509194527 | 10 | 270 | 0.0 | 0.0 | 0.00 | 0.00 | 0.00 | 61 | 1020.5 |
| 20260509194025 | 10 | 180 | 1.6 | 3.2 | 0.00 | 0.00 | 0.00 | 61 | 1020.1 |
| 20260509193525 | 10 | 180 | 0.0 | 0.0 | 0.00 | 0.00 | 0.00 | 61 | 1020.1 |
| 20260509193022 | 10 | 180 | 1.6 | 3.2 | 0.00 | 0.00 | 0.00 | 61 | 1020.1 |
| 20260509192518 | 10 | 180 | 1.6 | 3.2 | 0.00 | 0.00 | 0.00 | 60 | 1020.1 |
| 20260509192013 | 10 | 180 | 0.0 | 0.0 | 0.00 | 0.00 | 0.00 | 60 | 1020.1 |
| 20260509191508 | 10 | 180 | 0.0 | 1.6 | 0.00 | 0.00 | 0.00 | 60 | 1020.1 |
| 20260509191004 | 10 | 180 | 1.6 | 3.2 | 0.00 | 0.00 | 0.00 | 60 | 1019.8 |
| 20260509190501 | 10 | 180 | 0.0 | 1.6 | 0.00 | 0.00 | 0.00 | 60 | 1019.8 |
| 20260509185959 | 10 | 180 | 1.6 | 3.2 | 0.00 | 0.00 | 0.00 | 59 | 1019.8 |
| 20260509185456 | 10 | 180 | 0.0 | 1.6 | 0.00 | 0.00 | 0.00 | 59 | 1019.8 |
| 20260509184952 | 10 | 225 | 1.6 | 1.6 | 0.00 | 0.00 | 0.00 | 59 | 1019.8 |
| 20260509184451 | 10 | 270 | 4.8 | 4.8 | 0.00 | 0.00 | 0.00 | 59 | 1019.5 |
| 20260509183947 | 10 | 225 | 1.6 | 3.2 | 0.00 | 0.00 | 0.00 | 59 | 1019.5 |
| 20260509183441 | 10 | 180 | 0.0 | 1.6 | 0.00 | 0.00 | 0.00 | 58 | 1019.5 |
| 20260509182938 | 10 | 270 | 0.0 | 0.0 | 0.00 | 0.00 | 0.00 | 58 | 1019.5 |
| 20260509182434 | 10 | 270 | 0.0 | 0.0 | 0.00 | 0.00 | 0.00 | 58 | 1019.5 |
| 20260509181931 | 10 | 180 | 0.0 | 0.0 | 0.00 | 0.00 | 0.00 | 58 | 1019.5 |
| 20260509181430 | 10 | 225 | 0.0 | 0.0 | 0.00 | 0.00 | 0.00 | 57 | 1019.1 |
| 20260509180927 | 10 | 225 | 1.6 | 3.2 | 0.00 | 0.00 | 0.00 | 57 | 1019.5 |
| 20260509180422 | 10 | 225 | 1.6 | 3.2 | 0.00 | 0.00 | 0.00 | 57 | 1019.5 |
| 20260509175919 | 10 | 180 | 1.6 | 1.6 | 0.00 | 0.00 | 0.00 | 57 | 1019.5 |
| 20260509175415 | 10 | 270 | 0.0 | 1.6 | 0.00 | 0.00 | 0.00 | 57 | 1019.1 |
| 20260509174912 | 10 | 225 | 1.6 | 3.2 | 0.00 | 0.00 | 0.00 | 56 | 1019.1 |
| 20260509174408 | 10 | 270 | 1.6 | 1.6 | 0.00 | 0.00 | 0.00 | 56 | 1018.8 |
| 20260509173904 | 10 | 270 | 0.0 | 0.0 | 0.00 | 0.00 | 0.00 | 56 | 1019.1 |
| 20260509173404 | 10 | 270 | 0.0 | 0.0 | 0.00 | 0.00 | 0.00 | 56 | 1018.8 |
| 20260509172900 | 10 | 270 | 0.0 | 0.0 | 0.00 | 0.00 | 0.00 | 56 | 1018.8 |
| 20260509172357 | 10 | 180 | 1.6 | 3.2 | 0.00 | 0.00 | 0.00 | 56 | 1018.8 |
| 20260509171853 | 10 | 180 | 0.0 | 0.0 | 0.00 | 0.00 | 0.00 | 56 | 1018.8 |
| 20260509171349 | 11 | 180 | 0.0 | 0.0 | 0.00 | 0.00 | 0.00 | 55 | 1018.8 |
| 20260509170846 | 11 | 180 | 0.0 | 0.0 | 0.00 | 0.00 | 0.00 | 55 | 1018.8 |
| 20260509170341 | 11 | 180 | 0.0 | 1.6 | 0.00 | 0.00 | 0.00 | 55 | 1018.8 |
| 20260509165836 | 11 | 270 | 0.0 | 1.6 | 0.00 | 0.00 | 0.00 | 54 | 1018.8 |
| 20260509165331 | 11 | 270 | 1.6 | 3.2 | 0.00 | 0.00 | 0.00 | 54 | 1018.8 |
| 20260509164827 | 11 | 270 | 1.6 | 3.2 | 0.00 | 0.00 | 0.00 | 54 | 1018.8 |
| 20260509164324 | 11 | 270 | 1.6 | 3.2 | 0.00 | 0.00 | 0.00 | 54 | 1018.8 |
| 20260509163820 | 11 | 270 | 0.0 | 0.0 | 0.00 | 0.00 | 0.00 | 54 | 1018.8 |
| 20260509163316 | 11 | 0 | 0.0 | 0.0 | 0.00 | 0.00 | 0.00 | 53 | 1018.8 |
| 20260509162816 | 11 | 225 | 3.2 | 3.2 | 0.00 | 0.00 | 0.00 | 54 | 1018.8 |
| 20260509162309 | 11 | 225 | 4.8 | 4.8 | 0.00 | 0.00 | 0.00 | 54 | 1018.8 |
| 20260509161805 | 11 | 225 | 0.0 | 0.0 | 0.00 | 0.00 | 0.00 | 53 | 1018.8 |
| 20260509161301 | 11 | 225 | 3.2 | 3.2 | 0.00 | 0.00 | 0.00 | 52 | 1018.8 |
| 20260509160757 | 11 | 270 | 0.0 | 1.6 | 0.00 | 0.00 | 0.00 | 52 | 1018.8 |
| 20260509160253 | 11 | 270 | 0.0 | 0.0 | 0.00 | 0.00 | 0.00 | 52 | 1018.4 |
| 20260509155748 | 11 | 0 | 0.0 | 0.0 | 0.00 | 0.00 | 0.00 | 51 | 1018.8 |
| 20260509155245 | 11 | 270 | 3.2 | 3.2 | 0.00 | 0.00 | 0.00 | 51 | 1018.4 |
| 20260509154741 | 11 | 270 | 0.0 | 1.6 | 0.00 | 0.00 | 0.00 | 51 | 1018.8 |
| 20260509154239 | 11 | 270 | 3.2 | 4.8 | 0.00 | 0.00 | 0.00 | 50 | 1018.8 |
| 20260509153736 | 11 | 270 | 3.2 | 4.8 | 0.00 | 0.00 | 0.00 | 50 | 1018.4 |
| 20260509153231 | 12 | 270 | 3.2 | 3.2 | 0.00 | 0.00 | 0.00 | 49 | 1018.8 |
| 20260509152728 | 12 | 315 | 1.6 | 1.6 | 0.00 | 0.00 | 0.00 | 48 | 1018.8 |
| 20260509152225 | 12 | 270 | 0.0 | 1.6 | 0.00 | 0.00 | 0.00 | 48 | 1018.8 |
| 20260509151722 | 12 | 180 | 0.0 | 0.0 | 0.00 | 0.00 | 0.00 | 47 | 1018.8 |
| 20260509151218 | 12 | 270 | 3.2 | 3.2 | 0.00 | 0.00 | 0.00 | 47 | 1018.8 |
| 20260509150716 | 12 | 270 | 1.6 | 3.2 | 0.00 | 0.00 | 0.00 | 46 | 1018.4 |
| 20260509150214 | 12 | 180 | 0.0 | 0.0 | 0.00 | 0.00 | 0.00 | 46 | 1018.8 |
| 20260509145710 | 12 | 90 | 0.0 | 0.0 | 0.00 | 0.00 | 0.00 | 45 | 1018.8 |
| 20260509145206 | 12 | 45 | 0.0 | 0.0 | 0.00 | 0.00 | 0.00 | 45 | 1018.8 |
| 20260509144703 | 12 | 45 | 0.0 | 0.0 | 0.00 | 0.00 | 0.00 | 44 | 1018.4 |
| 20260509144200 | 12 | 225 | 1.6 | 3.2 | 0.00 | 0.00 | 0.00 | 44 | 1018.4 |
| 20260509143657 | 12 | 0 | 0.0 | 1.6 | 0.00 | 0.00 | 0.00 | 43 | 1018.4 |
| 20260509143154 | 12 | 270 | 0.0 | 0.0 | 0.00 | 0.00 | 0.00 | 43 | 1018.4 |
| 20260509142649 | 12 | 180 | 1.6 | 3.2 | 0.00 | 0.00 | 0.00 | 43 | 1018.4 |
| 20260509142147 | 12 | 180 | 1.6 | 3.2 | 0.00 | 0.00 | 0.00 | 42 | 1018.4 |
| 20260509141642 | 13 | 270 | 0.0 | 0.0 | 0.00 | 0.00 | 0.00 | 40 | 1018.0 |
| 20260509141138 | 13 | 270 | 1.6 | 3.2 | 0.00 | 0.00 | 0.00 | 41 | 1018.0 |
| 20260509140636 | 13 | 270 | 0.0 | 0.0 | 0.00 | 0.00 | 0.00 | 40 | 1018.0 |
| 20260509140134 | 13 | 270 | 3.2 | 4.8 | 0.00 | 0.00 | 0.00 | 40 | 1017.7 |
| 20260509135631 | 13 | 315 | 1.6 | 3.2 | 0.00 | 0.00 | 0.00 | 39 | 1017.7 |
| 20260509135129 | 13 | 315 | 1.6 | 3.2 | 0.00 | 0.00 | 0.00 | 39 | 1017.7 |
| 20260509134625 | 13 | 315 | 3.2 | 3.2 | 0.00 | 0.00 | 0.00 | 38 | 1017.7 |
| 20260509134122 | 13 | 0 | 1.6 | 3.2 | 0.00 | 0.00 | 0.00 | 37 | 1017.7 |
| 20260509133620 | 13 | 45 | 1.6 | 1.6 | 0.00 | 0.00 | 0.00 | 36 | 1017.7 |
| 20260509133117 | 13 | 225 | 0.0 | 1.6 | 0.00 | 0.00 | 0.00 | 36 | 1017.7 |
| 20260509132615 | 13 | 180 | 0.0 | 1.6 | 0.00 | 0.00 | 0.00 | 36 | 1017.7 |
| 20260509132113 | 13 | 180 | 0.0 | 1.6 | 0.00 | 0.00 | 0.00 | 35 | 1017.7 |
| 20260509131609 | 14 | 270 | 1.6 | 4.8 | 0.00 | 0.00 | 0.00 | 35 | 1017.7 |
| 20260509131106 | 14 | 270 | 3.2 | 3.2 | 0.00 | 0.00 | 0.00 | 34 | 1017.7 |
| 20260509130602 | 14 | 270 | 0.0 | 1.6 | 0.00 | 0.00 | 0.00 | 33 | 1017.7 |
| 20260509130058 | 14 | 225 | 1.6 | 3.2 | 0.00 | 0.00 | 0.00 | 33 | 1017.7 |
| 20260509125555 | 15 | 270 | 1.6 | 3.2 | 0.00 | 0.00 | 0.00 | 33 | 1017.3 |
| 20260509125052 | 15 | 180 | 0.0 | 0.0 | 0.00 | 0.00 | 0.00 | 32 | 1017.7 |
| 20260509124548 | 15 | 180 | 1.6 | 3.2 | 0.00 | 0.00 | 0.00 | 31 | 1017.3 |
| 20260509124045 | 15 | 270 | 0.0 | 1.6 | 0.00 | 0.00 | 0.00 | 30 | 1017.3 |
| 20260509123543 | 15 | 225 | 3.2 | 3.2 | 0.00 | 0.00 | 0.00 | 28 | 1017.3 |
| 20260509123039 | 15 | 225 | 3.2 | 3.2 | 0.00 | 0.00 | 0.00 | 27 | 1017.3 |
| 20260509122536 | 15 | 180 | 0.0 | 0.0 | 0.00 | 0.00 | 0.00 | 26 | 1017.3 |
| 20260509122033 | 15 | 180 | 0.0 | 0.0 | 0.00 | 0.00 | 0.00 | 26 | 1017.3 |
| 20260509121529 | 15 | 45 | 0.0 | 0.0 | 0.00 | 0.00 | 0.00 | 25 | 1017.3 |
| 20260509121027 | 15 | 0 | 0.0 | 3.2 | 0.00 | 0.00 | 0.00 | 25 | 1017.3 |
| 20260509120525 | 16 | 90 | 0.0 | 1.6 | 0.00 | 0.00 | 0.00 | 24 | 1017.3 |
| 20260509120023 | 16 | 90 | 0.0 | 0.0 | 0.00 | 0.00 | 0.00 | 24 | 1017.0 |
| 20260509115520 | 16 | 90 | 0.0 | 0.0 | 0.00 | 0.00 | 0.00 | 23 | 1017.3 |
| 20260509115018 | 16 | 90 | 0.0 | 0.0 | 0.00 | 0.00 | 0.00 | 23 | 1017.3 |
| 20260509114515 | 16 | 90 | 0.0 | 0.0 | 0.00 | 0.00 | 0.00 | 20 | 1017.3 |
| 20260509114014 | 16 | 90 | 1.6 | 3.2 | 0.00 | 0.00 | 0.00 | 20 | 1017.0 |
| 20260509113512 | 16 | 90 | 0.0 | 1.6 | 0.00 | 0.00 | 0.00 | 20 | 1017.0 |
| 20260509113010 | 16 | 90 | 1.6 | 3.2 | 0.00 | 0.00 | 0.00 | 20 | 1017.0 |
| 20260509112506 | 17 | 135 | 0.0 | 0.0 | 0.00 | 0.00 | 0.00 | 18 | 1017.0 |
| 20260509112002 | 17 | 45 | 0.0 | 0.0 | 0.00 | 0.00 | 0.00 | 18 | 1017.0 |
| 20260509111500 | 17 | 135 | 0.0 | 1.6 | 0.00 | 0.00 | 0.00 | 18 | 1016.6 |
| 20260509110957 | 17 | 45 | 0.0 | 0.0 | 0.00 | 0.00 | 0.00 | 17 | 1016.6 |
| 20260509110453 | 17 | 90 | 3.2 | 4.8 | 0.00 | 0.00 | 0.00 | 17 | 1016.6 |
| 20260509105951 | 17 | 45 | 1.6 | 3.2 | 0.00 | 0.00 | 0.00 | 15 | 1016.6 |
| 20260509105449 | 17 | 90 | 3.2 | 3.2 | 0.00 | 0.00 | 0.00 | 15 | 1016.6 |
| 20260509104946 | 17 | 45 | 3.2 | 4.8 | 0.00 | 0.00 | 0.00 | 10 | 1016.6 |
| 20260509104443 | 18 | 45 | 4.8 | 6.4 | 0.00 | 0.00 | 0.00 | 10 | 1016.3 |
| 20260509103940 | 18 | 0 | 1.6 | 3.2 | 0.00 | 0.00 | 0.00 | 10 | 1016.3 |
| 20260509103438 | 18 | 90 | 4.8 | 4.8 | 0.00 | 0.00 | 0.00 | 10 | 1016.3 |
| 20260509102936 | 18 | 45 | 6.4 | 8.0 | 0.00 | 0.00 | 0.00 | 10 | 1016.0 |
| 20260509102433 | 18 | 90 | 8.0 | 11.3 | 0.00 | 0.00 | 0.00 | 10 | 1016.0 |
| 20260509101929 | 18 | 45 | 8.0 | 9.7 | 0.00 | 0.00 | 0.00 | 14 | 1016.0 |
| 20260509101425 | 18 | 45 | 8.0 | 9.7 | 0.00 | 0.00 | 0.00 | 14 | 1016.0 |
| 20260509100923 | 18 | 90 | 3.2 | 3.2 | 0.00 | 0.00 | 0.00 | 14 | 1015.6 |
| 20260509100420 | 18 | 45 | 3.2 | 3.2 | 0.00 | 0.00 | 0.00 | 14 | 1015.6 |
| 20260509095916 | 18 | 45 | 8.0 | 9.7 | 0.00 | 0.00 | 0.00 | 14 | 1015.6 |
| 20260509095414 | 18 | 90 | 4.8 | 6.4 | 0.00 | 0.00 | 0.00 | 16 | 1015.6 |
| 20260509094911 | 18 | 45 | 3.2 | 4.8 | 0.00 | 0.00 | 0.00 | 12 | 1015.3 |
| 20260509094407 | 19 | 45 | 3.2 | 3.2 | 0.00 | 0.00 | 0.00 | 12 | 1015.3 |
| 20260509093905 | 19 | 0 | 8.0 | 9.7 | 0.00 | 0.00 | 0.00 | 12 | 1015.3 |
| 20260509093402 | 19 | 90 | 3.2 | 3.2 | 0.00 | 0.00 | 0.00 | 12 | 1014.9 |
| 20260509092900 | 19 | 45 | 0.0 | 3.2 | 0.00 | 0.00 | 0.00 | 12 | 1015.3 |
| 20260509092357 | 19 | 90 | 4.8 | 6.4 | 0.00 | 0.00 | 0.00 | 12 | 1014.9 |
| 20260509091856 | 20 | 90 | 4.8 | 6.4 | 0.00 | 0.00 | 0.00 | 13 | 1014.9 |
| 20260509091352 | 20 | 0 | 3.2 | 6.4 | 0.00 | 0.00 | 0.00 | 13 | 1014.9 |
| 20260509090850 | 20 | 0 | 6.4 | 8.0 | 0.00 | 0.00 | 0.00 | 13 | 1014.9 |
| 20260509090347 | 20 | 45 | 4.8 | 8.0 | 0.00 | 0.00 | 0.00 | 13 | 1014.6 |
| 20260509085844 | 20 | 90 | 6.4 | 8.0 | 0.00 | 0.00 | 0.00 | 13 | 1014.3 |
| 20260509085341 | 20 | 90 | 4.8 | 6.4 | 0.00 | 0.00 | 0.00 | 13 | 1014.6 |
| 20260509084838 | 20 | 90 | 3.2 | 4.8 | 0.00 | 0.00 | 0.00 | 11 | 1014.3 |
| 20260509084335 | 20 | 225 | 9.7 | 12.9 | 0.00 | 0.00 | 0.00 | 11 | 1014.3 |
| 20260509083833 | 21 | 45 | 16.1 | 17.7 | 0.00 | 0.00 | 0.00 | 11 | 1014.3 |
| 20260509083329 | 21 | 45 | 14.5 | 16.1 | 0.00 | 0.00 | 0.00 | 11 | 1013.9 |
| 20260509082826 | 21 | 45 | 11.3 | 14.5 | 0.00 | 0.00 | 0.00 | 11 | 1013.6 |
| 20260509082322 | 21 | 0 | 4.8 | 6.4 | 0.00 | 0.00 | 0.00 | 12 | 1013.9 |
| 20260509081820 | 21 | 45 | 16.1 | 20.9 | 0.00 | 0.00 | 0.00 | 12 | 1013.6 |
| 20260509081317 | 21 | 90 | 14.5 | 19.3 | 0.00 | 0.00 | 0.00 | 12 | 1013.6 |
| 20260509080815 | 21 | 45 | 9.7 | 11.3 | 0.00 | 0.00 | 0.00 | 12 | 1013.3 |
| 20260509080312 | 21 | 0 | 6.4 | 9.7 | 0.00 | 0.00 | 0.00 | 12 | 1013.3 |
| 20260509075810 | 21 | 0 | 11.3 | 12.9 | 0.00 | 0.00 | 0.00 | 12 | 1013.6 |
| 20260509075307 | 21 | 45 | 11.3 | 14.5 | 0.00 | 0.00 | 0.00 | 10 | 1013.3 |
| 20260509074804 | 21 | 45 | 9.7 | 12.9 | 0.00 | 0.00 | 0.00 | 10 | 1013.3 |
| 20260509074302 | 21 | 45 | 9.7 | 17.7 | 0.00 | 0.00 | 0.00 | 10 | 1013.3 |
| 20260509073758 | 21 | 45 | 11.3 | 12.9 | 0.00 | 0.00 | 0.00 | 16 | 1012.9 |
| 20260509073254 | 22 | 45 | 6.4 | 6.4 | 0.00 | 0.00 | 0.00 | 17 | 1012.9 |
| 20260509072751 | 22 | 90 | 3.2 | 4.8 | 0.00 | 0.00 | 0.00 | 16 | 1012.6 |
| 20260509072248 | 22 | 0 | 8.0 | 9.7 | 0.00 | 0.00 | 0.00 | 16 | 1012.6 |
| 20260509071744 | 22 | 90 | 12.9 | 19.3 | 0.00 | 0.00 | 0.00 | 16 | 1012.2 |
| 20260509071242 | 22 | 315 | 3.2 | 3.2 | 0.00 | 0.00 | 0.00 | 16 | 1012.2 |
| 20260509070738 | 22 | 0 | 6.4 | 8.0 | 0.00 | 0.00 | 0.00 | 16 | 1012.2 |
| 20260509070235 | 22 | 0 | 6.4 | 8.0 | 0.00 | 0.00 | 0.00 | 17 | 1012.2 |
| 20260509065731 | 22 | 45 | 9.7 | 16.1 | 0.00 | 0.00 | 0.00 | 17 | 1011.9 |
| 20260509065228 | 22 | 270 | 8.0 | 11.3 | 0.00 | 0.00 | 0.00 | 17 | 1011.6 |
| 20260509064724 | 22 | 90 | 1.6 | 3.2 | 0.00 | 0.00 | 0.00 | 16 | 1011.6 |
| 20260509064222 | 22 | 0 | 8.0 | 12.9 | 0.00 | 0.00 | 0.00 | 16 | 1011.6 |
| 20260509063719 | 22 | 0 | 8.0 | 9.7 | 0.00 | 0.00 | 0.00 | 10 | 1011.6 |
| 20260509063215 | 22 | 270 | 6.4 | 11.3 | 0.00 | 0.00 | 0.00 | 16 | 1011.6 |
| 20260509062713 | 22 | 0 | 14.5 | 17.7 | 0.00 | 0.00 | 0.00 | 16 | 1011.2 |
| 20260509062210 | 22 | 0 | 8.0 | 14.5 | 0.00 | 0.00 | 0.00 | 16 | 1011.6 |
| 20260509061707 | 22 | 270 | 4.8 | 6.4 | 0.00 | 0.00 | 0.00 | 16 | 1011.6 |
| 20260509061204 | 22 | 135 | 4.8 | 8.0 | 0.00 | 0.00 | 0.00 | 16 | 1011.6 |
| 20260509060701 | 22 | 270 | 8.0 | 11.3 | 0.00 | 0.00 | 0.00 | 16 | 1011.6 |
| 20260509060158 | 22 | 45 | 11.3 | 14.5 | 0.00 | 0.00 | 0.00 | 17 | 1010.9 |
| 20260509055654 | 22 | 0 | 9.7 | 14.5 | 0.00 | 0.00 | 0.00 | 18 | 1011.2 |
| 20260509055149 | 22 | 270 | 9.7 | 16.1 | 0.00 | 0.00 | 0.00 | 18 | 1011.2 |
| 20260509054646 | 22 | 0 | 17.7 | 20.9 | 0.00 | 0.00 | 0.00 | 18 | 1011.2 |
| 20260509054144 | 22 | 45 | 14.5 | 29.0 | 0.00 | 0.00 | 0.00 | 20 | 1011.2 |
| 20260509053642 | 22 | 135 | 4.8 | 8.0 | 0.00 | 0.00 | 0.00 | 20 | 1011.6 |
| 20260509053138 | 22 | 0 | 11.3 | 12.9 | 0.00 | 0.00 | 0.00 | 21 | 1011.6 |
| 20260509052636 | 22 | 45 | 11.3 | 16.1 | 0.00 | 0.00 | 0.00 | 21 | 1011.2 |
| 20260509052134 | 22 | 45 | 6.4 | 8.0 | 0.00 | 0.00 | 0.00 | 21 | 1011.2 |
| 20260509051632 | 22 | 45 | 14.5 | 17.7 | 0.00 | 0.00 | 0.00 | 21 | 1011.2 |
| 20260509051128 | 22 | 0 | 3.2 | 6.4 | 0.00 | 0.00 | 0.00 | 20 | 1011.2 |
| 20260509050626 | 22 | 270 | 9.7 | 16.1 | 0.00 | 0.00 | 0.00 | 18 | 1011.2 |
| 20260509050122 | 23 | 45 | 14.5 | 22.5 | 0.00 | 0.00 | 0.00 | 16 | 1011.2 |
| 20260509045620 | 23 | 0 | 8.0 | 11.3 | 0.00 | 0.00 | 0.00 | 10 | 1011.2 |
| 20260509045116 | 23 | 45 | 6.4 | 9.7 | 0.00 | 0.00 | 0.00 | 10 | 1011.2 |
| 20260509044613 | 23 | 270 | 24.1 | 30.6 | 0.00 | 0.00 | 0.00 | 15 | 1011.2 |
| 20260509044111 | 23 | 45 | 4.8 | 8.0 | 0.00 | 0.00 | 0.00 | 15 | 1011.6 |
| 20260509043607 | 24 | 270 | 16.1 | 24.1 | 0.00 | 0.00 | 0.00 | 16 | 1011.2 |
| 20260509043103 | 23 | 14.5 | 29.0 | 0.00 | 0.00 | 0.00 | 15 | 1011.2 | |
| 20260509042559 | 23 | 0 | 14.5 | 16.1 | 0.00 | 0.00 | 0.00 | 15 | 1011.2 |
| 20260509042055 | 23 | 45 | 17.7 | 27.4 | 0.00 | 0.00 | 0.00 | 15 | 1011.2 |
| 20260509041552 | 23 | 0 | 17.7 | 24.1 | 0.00 | 0.00 | 0.00 | 10 | 1011.6 |
| 20260509041050 | 23 | 0 | 14.5 | 19.3 | 0.00 | 0.00 | 0.00 | 10 | 1011.2 |
| 20260509040548 | 23 | 270 | 16.1 | 16.1 | 0.00 | 0.00 | 0.00 | 10 | 1011.2 |
| 20260509040044 | 23 | 0 | 14.5 | 20.9 | 0.00 | 0.00 | 0.00 | 10 | 1011.6 |
| 20260509035541 | 22 | 0 | 25.7 | 37.0 | 0.00 | 0.00 | 0.00 | 10 | 1011.6 |
| 20260509035038 | 22 | 270 | 19.3 | 30.6 | 0.00 | 0.00 | 0.00 | 17 | 1011.2 |
| 20260509034536 | 22 | 0 | 17.7 | 35.4 | 0.00 | 0.00 | 0.00 | 19 | 1011.6 |
| 20260509034033 | 22 | 270 | 8.0 | 9.7 | 0.00 | 0.00 | 0.00 | 21 | 1011.2 |
| 20260509033530 | 22 | 270 | 11.3 | 14.5 | 0.00 | 0.00 | 0.00 | 22 | 1011.2 |
| 20260509033027 | 22 | 180 | 12.9 | 19.3 | 0.00 | 0.00 | 0.00 | 22 | 1011.6 |
| 20260509032524 | 22 | 135 | 12.9 | 19.3 | 0.00 | 0.00 | 0.00 | 21 | 1011.2 |
| 20260509032021 | 21 | 0 | 22.5 | 30.6 | 0.00 | 0.00 | 0.00 | 22 | 1011.2 |
| 20260509031519 | 22 | 0 | 14.5 | 24.1 | 0.00 | 0.00 | 0.00 | 22 | 1011.6 |
| 20260509031016 | 21 | 0 | 12.9 | 17.7 | 0.00 | 0.00 | 0.00 | 22 | 1011.6 |
| 20260509030514 | 21 | 0 | 11.3 | 16.1 | 0.00 | 0.00 | 0.00 | 22 | 1011.2 |
| 20260509030010 | 21 | 270 | 19.3 | 32.2 | 0.00 | 0.00 | 0.00 | 24 | 1011.6 |
| 20260509025506 | 21 | 270 | 17.7 | 20.9 | 0.00 | 0.00 | 0.00 | 23 | 1011.2 |
| 20260509025002 | 21 | 0 | 14.5 | 24.1 | 0.00 | 0.00 | 0.00 | 23 | 1011.6 |
| 20260509024458 | 21 | 270 | 16.1 | 24.1 | 0.00 | 0.00 | 0.00 | 23 | 1010.9 |
| 20260509023955 | 21 | 0 | 12.9 | 19.3 | 0.00 | 0.00 | 0.00 | 25 | 1011.6 |
| 20260509023452 | 21 | 315 | 16.1 | 24.1 | 0.00 | 0.00 | 0.00 | 25 | 1011.2 |
| 20260509022949 | 21 | 45 | 22.5 | 30.6 | 0.00 | 0.00 | 0.00 | 25 | 1011.2 |
| 20260509022446 | 21 | 270 | 12.9 | 19.3 | 0.00 | 0.00 | 0.00 | 25 | 1011.6 |
| 20260509021943 | 21 | 0 | 17.7 | 24.1 | 0.00 | 0.00 | 0.00 | 26 | 1011.2 |
| 20260509021440 | 21 | 270 | 8.0 | 12.9 | 0.00 | 0.00 | 0.00 | 27 | 1011.6 |
| 20260509020938 | 21 | 0 | 17.7 | 24.1 | 0.00 | 0.00 | 0.00 | 27 | 1011.6 |
| 20260509020436 | 21 | 0 | 17.7 | 24.1 | 0.00 | 0.00 | 0.00 | 26 | 1011.6 |
| 20260509015932 | 21 | 270 | 24.1 | 30.6 | 0.00 | 0.00 | 0.00 | 27 | 1011.6 |
| 20260509015431 | 21 | 315 | 20.9 | 22.5 | 0.00 | 0.00 | 0.00 | 27 | 1011.6 |
| 20260509014927 | 21 | 0 | 25.7 | 38.6 | 0.00 | 0.00 | 0.00 | 28 | 1011.6 |
| 20260509014424 | 21 | 45 | 19.3 | 22.5 | 0.00 | 0.00 | 0.00 | 28 | 1011.6 |
| 20260509013920 | 21 | 270 | 24.1 | 30.6 | 0.00 | 0.00 | 0.00 | 28 | 1011.2 |
| 20260509013417 | 21 | 0 | 11.3 | 17.7 | 0.00 | 0.00 | 0.00 | 27 | 1011.2 |
| 20260509012913 | 21 | 0 | 20.9 | 35.4 | 0.00 | 0.00 | 0.00 | 29 | 1011.9 |
| 20260509012410 | 21 | 0 | 12.9 | 16.1 | 0.00 | 0.00 | 0.00 | 29 | 1011.6 |
| 20260509011907 | 21 | 0 | 22.5 | 32.2 | 0.00 | 0.00 | 0.00 | 29 | 1011.2 |
| 20260509011404 | 21 | 0 | 17.7 | 22.5 | 0.00 | 0.00 | 0.00 | 30 | 1011.6 |
| 20260509010902 | 21 | 270 | 14.5 | 30.6 | 0.00 | 0.00 | 0.00 | 30 | 1011.6 |
| 20260509010400 | 21 | 315 | 20.9 | 24.1 | 0.00 | 0.00 | 0.00 | 30 | 1011.6 |
| 20260509005856 | 21 | 315 | 27.4 | 41.8 | 0.00 | 0.00 | 0.00 | 31 | 1011.2 |
| 20260509005354 | 21 | 180 | 14.5 | 20.9 | 0.00 | 0.00 | 0.00 | 32 | 1011.2 |
| 20260509004849 | 21 | 45 | 16.1 | 24.1 | 0.00 | 0.00 | 0.00 | 33 | 1011.6 |
| 20260509004346 | 21 | 270 | 17.7 | 30.6 | 0.00 | 0.00 | 0.00 | 33 | 1011.2 |
| 20260509003843 | 21 | 270 | 24.1 | 35.4 | 0.00 | 0.00 | 0.00 | 35 | 1011.2 |
| 20260509003341 | 20 | 225 | 8.0 | 9.7 | 0.00 | 0.00 | 0.00 | 35 | 1011.2 |
| 20260509002838 | 20 | 270 | 9.7 | 16.1 | 0.00 | 0.00 | 0.00 | 36 | 1010.9 |
| 20260509002336 | 20 | 270 | 11.3 | 16.1 | 0.00 | 0.00 | 0.00 | 37 | 1010.9 |
| 20260509001833 | 20 | 45 | 8.0 | 9.7 | 0.00 | 0.00 | 0.00 | 37 | 1010.9 |
| 20260509001329 | 20 | 45 | 11.3 | 12.9 | 0.00 | 0.00 | 0.00 | 37 | 1010.9 |
| 20260509000826 | 20 | 45 | 3.2 | 3.2 | 0.00 | 0.00 | 0.00 | 37 | 1010.4 |
| 20260509000325 | 20 | 45 | 4.8 | 11.3 | 0.00 | 0.00 | 0.00 | 36 | 1010.9 |
| 20260508235820 | 20 | 315 | 9.7 | 11.3 | 0.00 | 0.00 | 0.00 | 36 | 1010.9 |
| 20260508235317 | 20 | 0 | 6.4 | 9.7 | 0.00 | 0.00 | 0.00 | 37 | 1010.4 |
| 20260508234814 | 20 | 45 | 6.4 | 8.0 | 0.00 | 0.00 | 0.00 | 38 | 1010.4 |
| 20260508234310 | 20 | 45 | 3.2 | 8.0 | 0.00 | 0.00 | 0.00 | 38 | 1010.4 |
| 20260508233809 | 20 | 90 | 3.2 | 3.2 | 0.00 | 0.00 | 0.00 | 38 | 1010.4 |
| 20260508233308 | 20 | 90 | 8.0 | 9.7 | 0.00 | 0.00 | 0.00 | 38 | 1010.4 |
| 20260508232805 | 20 | 180 | 4.8 | 6.4 | 0.00 | 0.00 | 0.00 | 38 | 1010.1 |
| 20260508232301 | 20 | 90 | 6.4 | 8.0 | 0.00 | 0.00 | 0.00 | 38 | 1010.1 |
| 20260508231800 | 20 | 90 | 1.6 | 4.8 | 0.00 | 0.00 | 0.00 | 38 | 1010.1 |
| 20260508231255 | 21 | 315 | 3.2 | 4.8 | 0.00 | 0.00 | 0.00 | 39 | 1010.1 |
| 20260508230752 | 21 | 0 | 3.2 | 6.4 | 0.00 | 0.00 | 0.00 | 39 | 1009.8 |
| 20260508230248 | 22 | 0 | 8.0 | 11.3 | 0.00 | 0.00 | 0.00 | 40 | 1010.1 |
| 20260508225746 | 22 | 45 | 4.8 | 6.4 | 0.00 | 0.00 | 0.00 | 41 | 1010.1 |
| 20260508225242 | 22 | 0 | 3.2 | 3.2 | 0.00 | 0.00 | 0.00 | 43 | 1009.8 |
| 20260508224740 | 22 | 45 | 4.8 | 8.0 | 0.00 | 0.00 | 0.00 | 44 | 1009.8 |
| 20260508224238 | 22 | 0 | 0.0 | 1.6 | 0.00 | 0.00 | 0.00 | 44 | 1009.8 |
| 20260508223736 | 21 | 0 | 3.2 | 4.8 | 0.00 | 0.00 | 0.00 | 45 | 1009.8 |
| 20260508223232 | 21 | 0 | 6.4 | 6.4 | 0.00 | 0.00 | 0.00 | 48 | 1009.4 |
| 20260508222730 | 20 | 45 | 4.8 | 6.4 | 0.00 | 0.00 | 0.00 | 48 | 1009.4 |
| 20260508222227 | 21 | 45 | 4.8 | 6.4 | 0.00 | 0.00 | 0.00 | 49 | 1009.4 |
| 20260508221723 | 21 | 45 | 8.0 | 8.0 | 0.00 | 0.00 | 0.00 | 53 | 1009.1 |
| 20260508221219 | 20 | 270 | 1.6 | 3.2 | 0.00 | 0.00 | 0.00 | 56 | 1008.8 |
| 20260508220715 | 18 | 135 | 1.6 | 3.2 | 0.00 | 0.00 | 0.00 | 57 | 1008.8 |
| 20260508220213 | 18 | 45 | 6.4 | 8.0 | 0.00 | 0.00 | 0.00 | 60 | 1008.8 |
| 20260508215709 | 18 | 45 | 8.0 | 8.0 | 0.00 | 0.00 | 0.00 | 62 | 1008.8 |
| 20260508215205 | 17 | 45 | 4.8 | 8.0 | 0.00 | 0.00 | 0.00 | 64 | 1008.8 |
| 20260508214703 | 17 | 90 | 1.6 | 3.2 | 0.00 | 0.00 | 0.00 | 66 | 1008.8 |
| 20260508214200 | 16 | 90 | 3.2 | 3.2 | 0.00 | 0.00 | 0.00 | 69 | 1008.8 |
| 20260508213656 | 16 | 45 | 6.4 | 9.7 | 0.00 | 0.00 | 0.00 | 71 | 1008.8 |
| 20260508213153 | 15 | 0 | 1.6 | 3.2 | 0.00 | 0.00 | 0.00 | 72 | 1008.4 |
| 20260508212649 | 15 | 90 | 3.2 | 3.2 | 0.00 | 0.00 | 0.00 | 72 | 1008.1 |
| 20260508212146 | 15 | 45 | 3.2 | 4.8 | 0.00 | 0.00 | 0.00 | 72 | 1008.4 |
| 20260508211641 | 15 | 90 | 1.6 | 3.2 | 0.00 | 0.00 | 0.00 | 73 | 1008.4 |
| 20260508211137 | 15 | 270 | 0.0 | 1.6 | 0.00 | 0.00 | 0.00 | 73 | 1008.1 |
| 20260508210634 | 15 | 0 | 3.2 | 3.2 | 0.00 | 0.00 | 0.00 | 73 | 1007.7 |
| 20260508210132 | 15 | 0 | 3.2 | 3.2 | 0.00 | 0.00 | 0.00 | 73 | 1007.7 |
| 20260508205629 | 14 | 0 | 4.8 | 4.8 | 0.00 | 0.00 | 0.00 | 73 | 1008.1 |
| 20260508205125 | 14 | 0 | 0.0 | 0.0 | 0.00 | 0.00 | 0.00 | 72 | 1007.7 |
| 20260508204621 | 14 | 0 | 1.6 | 3.2 | 0.00 | 0.00 | 0.00 | 72 | 1007.4 |
| 20260508204118 | 14 | 270 | 3.2 | 3.2 | 0.00 | 0.00 | 0.00 | 72 | 1007.7 |
| 20260508203614 | 14 | 225 | 4.8 | 4.8 | 0.00 | 0.00 | 0.00 | 72 | 1007.4 |
| 20260508203110 | 14 | 270 | 4.8 | 6.4 | 0.00 | 0.00 | 0.00 | 72 | 1007.1 |
| 20260508202606 | 14 | 270 | 3.2 | 3.2 | 0.00 | 0.00 | 0.00 | 71 | 1007.1 |